sensor_id;sensor_type;location;lat;lon;timestamp;P1;durP1;ratioP1;P2;durP2;ratioP2
1380;SDS011;684;48.342;10.096;2023-07-16T00:01:04;16.73;;;9.17;;
1380;SDS011;684;48.342;10.096;2023-07-16T00:03:31;13.47;;;8.80;;
1380;SDS011;684;48.342;10.096;2023-07-16T00:05:58;14.87;;;8.87;;
1380;SDS011;684;48.342;10.096;2023-07-16T00:08:24;17.97;;;9.07;;
1380;SDS011;684;48.342;10.096;2023-07-16T00:10:51;18.40;;;9.20;;
1380;SDS011;684;48.342;10.096;2023-07-16T00:13:19;17.63;;;9.20;;
1380;SDS011;684;48.342;10.096;2023-07-16T00:15:46;17.00;;;8.53;;
1380;SDS011;684;48.342;10.096;2023-07-16T00:18:13;19.63;;;9.30;;
1380;SDS011;684;48.342;10.096;2023-07-16T00:20:39;15.63;;;8.57;;
1380;SDS011;684;48.342;10.096;2023-07-16T00:23:06;11.60;;;8.77;;
1380;SDS011;684;48.342;10.096;2023-07-16T00:25:33;17.27;;;8.57;;
1380;SDS011;684;48.342;10.096;2023-07-16T00:28:00;12.10;;;8.77;;
1380;SDS011;684;48.342;10.096;2023-07-16T00:30:28;14.00;;;9.27;;
1380;SDS011;684;48.342;10.096;2023-07-16T00:32:55;19.90;;;9.43;;
1380;SDS011;684;48.342;10.096;2023-07-16T00:35:22;11.33;;;8.70;;
1380;SDS011;684;48.342;10.096;2023-07-16T00:37:49;15.97;;;8.40;;
1380;SDS011;684;48.342;10.096;2023-07-16T00:40:16;13.43;;;9.13;;
1380;SDS011;684;48.342;10.096;2023-07-16T00:42:43;15.57;;;8.50;;
1380;SDS011;684;48.342;10.096;2023-07-16T00:45:11;13.80;;;9.80;;
1380;SDS011;684;48.342;10.096;2023-07-16T00:47:41;13.13;;;8.13;;
1380;SDS011;684;48.342;10.096;2023-07-16T00:50:09;12.67;;;8.87;;
1380;SDS011;684;48.342;10.096;2023-07-16T00:52:37;12.80;;;9.47;;
1380;SDS011;684;48.342;10.096;2023-07-16T00:55:05;12.93;;;8.90;;
1380;SDS011;684;48.342;10.096;2023-07-16T00:57:34;12.80;;;8.40;;
1380;SDS011;684;48.342;10.096;2023-07-16T01:00:01;12.63;;;8.30;;
1380;SDS011;684;48.342;10.096;2023-07-16T01:02:29;12.60;;;8.20;;
1380;SDS011;684;48.342;10.096;2023-07-16T01:04:57;12.60;;;8.80;;
1380;SDS011;684;48.342;10.096;2023-07-16T01:07:24;10.37;;;7.90;;
1380;SDS011;684;48.342;10.096;2023-07-16T01:09:53;12.03;;;8.30;;
1380;SDS011;684;48.342;10.096;2023-07-16T01:12:20;12.43;;;8.13;;
1380;SDS011;684;48.342;10.096;2023-07-16T01:14:48;10.47;;;7.20;;
1380;SDS011;684;48.342;10.096;2023-07-16T01:17:16;12.67;;;8.13;;
1380;SDS011;684;48.342;10.096;2023-07-16T01:19:43;13.20;;;7.97;;
1380;SDS011;684;48.342;10.096;2023-07-16T01:22:22;11.70;;;6.80;;
1380;SDS011;684;48.342;10.096;2023-07-16T01:25:05;10.70;;;6.77;;
1380;SDS011;684;48.342;10.096;2023-07-16T01:27:50;13.90;;;6.83;;
1380;SDS011;684;48.342;10.096;2023-07-16T01:30:46;9.60;;;7.90;;
1380;SDS011;684;48.342;10.096;2023-07-16T01:33:13;12.80;;;6.73;;
1380;SDS011;684;48.342;10.096;2023-07-16T01:35:42;10.73;;;5.77;;
1380;SDS011;684;48.342;10.096;2023-07-16T01:38:11;10.10;;;6.50;;
1380;SDS011;684;48.342;10.096;2023-07-16T01:40:38;12.70;;;7.27;;
1380;SDS011;684;48.342;10.096;2023-07-16T01:43:05;10.83;;;7.03;;
1380;SDS011;684;48.342;10.096;2023-07-16T01:45:31;8.90;;;5.80;;
1380;SDS011;684;48.342;10.096;2023-07-16T01:48:01;7.70;;;5.33;;
1380;SDS011;684;48.342;10.096;2023-07-16T01:50:35;10.60;;;5.27;;
1380;SDS011;684;48.342;10.096;2023-07-16T01:53:02;7.37;;;4.10;;
1380;SDS011;684;48.342;10.096;2023-07-16T01:55:29;7.23;;;3.80;;
1380;SDS011;684;48.342;10.096;2023-07-16T01:57:55;8.33;;;3.50;;
1380;SDS011;684;48.342;10.096;2023-07-16T02:00:22;8.53;;;4.27;;
1380;SDS011;684;48.342;10.096;2023-07-16T02:02:49;6.77;;;3.20;;
1380;SDS011;684;48.342;10.096;2023-07-16T02:05:17;7.57;;;3.80;;
1380;SDS011;684;48.342;10.096;2023-07-16T02:07:43;7.50;;;3.93;;
1380;SDS011;684;48.342;10.096;2023-07-16T02:10:10;6.90;;;3.53;;
1380;SDS011;684;48.342;10.096;2023-07-16T02:12:37;6.43;;;3.30;;
1380;SDS011;684;48.342;10.096;2023-07-16T02:15:04;6.13;;;3.00;;
1380;SDS011;684;48.342;10.096;2023-07-16T02:17:31;5.80;;;3.47;;
1380;SDS011;684;48.342;10.096;2023-07-16T02:19:58;6.60;;;2.70;;
1380;SDS011;684;48.342;10.096;2023-07-16T02:22:26;5.13;;;2.50;;
1380;SDS011;684;48.342;10.096;2023-07-16T02:24:53;8.80;;;3.77;;
1380;SDS011;684;48.342;10.096;2023-07-16T02:27:20;5.30;;;2.90;;
1380;SDS011;684;48.342;10.096;2023-07-16T02:29:46;7.17;;;3.40;;
1380;SDS011;684;48.342;10.096;2023-07-16T02:32:13;8.03;;;4.50;;
1380;SDS011;684;48.342;10.096;2023-07-16T02:34:40;6.57;;;3.33;;
1380;SDS011;684;48.342;10.096;2023-07-16T02:37:06;6.37;;;2.70;;
1380;SDS011;684;48.342;10.096;2023-07-16T02:39:34;12.97;;;2.70;;
1380;SDS011;684;48.342;10.096;2023-07-16T02:42:01;25.53;;;4.07;;
1380;SDS011;684;48.342;10.096;2023-07-16T02:44:28;6.17;;;2.70;;
1380;SDS011;684;48.342;10.096;2023-07-16T02:46:55;7.13;;;2.60;;
1380;SDS011;684;48.342;10.096;2023-07-16T02:49:21;8.47;;;3.33;;
1380;SDS011;684;48.342;10.096;2023-07-16T02:51:48;7.00;;;2.90;;
1380;SDS011;684;48.342;10.096;2023-07-16T02:54:15;7.13;;;3.17;;
1380;SDS011;684;48.342;10.096;2023-07-16T02:56:43;7.27;;;3.43;;
1380;SDS011;684;48.342;10.096;2023-07-16T02:59:10;7.83;;;3.70;;
1380;SDS011;684;48.342;10.096;2023-07-16T03:01:36;6.60;;;3.50;;
1380;SDS011;684;48.342;10.096;2023-07-16T03:04:03;6.40;;;2.70;;
1380;SDS011;684;48.342;10.096;2023-07-16T03:06:30;6.40;;;2.60;;
1380;SDS011;684;48.342;10.096;2023-07-16T03:08:56;6.83;;;2.20;;
1380;SDS011;684;48.342;10.096;2023-07-16T03:11:23;5.73;;;2.63;;
1380;SDS011;684;48.342;10.096;2023-07-16T03:13:51;6.57;;;2.83;;
1380;SDS011;684;48.342;10.096;2023-07-16T03:16:18;6.80;;;2.87;;
1380;SDS011;684;48.342;10.096;2023-07-16T03:18:45;5.30;;;2.30;;
1380;SDS011;684;48.342;10.096;2023-07-16T03:21:12;6.70;;;2.37;;
1380;SDS011;684;48.342;10.096;2023-07-16T03:23:38;6.90;;;2.47;;
1380;SDS011;684;48.342;10.096;2023-07-16T03:26:05;6.37;;;3.10;;
1380;SDS011;684;48.342;10.096;2023-07-16T03:28:32;7.10;;;2.63;;
1380;SDS011;684;48.342;10.096;2023-07-16T03:31:00;7.20;;;2.60;;
1380;SDS011;684;48.342;10.096;2023-07-16T03:33:27;6.80;;;2.70;;
1380;SDS011;684;48.342;10.096;2023-07-16T03:35:54;5.60;;;2.63;;
1380;SDS011;684;48.342;10.096;2023-07-16T03:38:20;9.47;;;2.67;;
1380;SDS011;684;48.342;10.096;2023-07-16T03:40:47;11.13;;;3.00;;
1380;SDS011;684;48.342;10.096;2023-07-16T03:43:15;10.87;;;2.87;;
1380;SDS011;684;48.342;10.096;2023-07-16T03:45:43;8.80;;;3.17;;
1380;SDS011;684;48.342;10.096;2023-07-16T03:48:11;6.90;;;2.40;;
1380;SDS011;684;48.342;10.096;2023-07-16T03:50:37;9.20;;;2.90;;
1380;SDS011;684;48.342;10.096;2023-07-16T03:53:04;11.27;;;3.20;;
1380;SDS011;684;48.342;10.096;2023-07-16T03:55:31;6.57;;;2.70;;
1380;SDS011;684;48.342;10.096;2023-07-16T03:57:58;9.03;;;3.30;;
1380;SDS011;684;48.342;10.096;2023-07-16T04:00:24;7.73;;;2.60;;
1380;SDS011;684;48.342;10.096;2023-07-16T04:02:51;9.30;;;2.70;;
1380;SDS011;684;48.342;10.096;2023-07-16T04:05:19;6.20;;;2.93;;
1380;SDS011;684;48.342;10.096;2023-07-16T04:07:46;8.73;;;2.60;;
1380;SDS011;684;48.342;10.096;2023-07-16T04:10:12;7.37;;;2.17;;
1380;SDS011;684;48.342;10.096;2023-07-16T04:12:39;6.00;;;2.47;;
1380;SDS011;684;48.342;10.096;2023-07-16T04:15:07;8.03;;;2.33;;
1380;SDS011;684;48.342;10.096;2023-07-16T04:17:35;6.20;;;2.47;;
1380;SDS011;684;48.342;10.096;2023-07-16T04:20:02;6.80;;;2.20;;
1380;SDS011;684;48.342;10.096;2023-07-16T04:22:31;6.80;;;2.50;;
1380;SDS011;684;48.342;10.096;2023-07-16T04:24:58;7.50;;;2.33;;
1380;SDS011;684;48.342;10.096;2023-07-16T04:27:25;10.80;;;2.50;;
1380;SDS011;684;48.342;10.096;2023-07-16T04:29:51;12.27;;;2.50;;
1380;SDS011;684;48.342;10.096;2023-07-16T04:32:18;5.70;;;2.33;;
1380;SDS011;684;48.342;10.096;2023-07-16T04:34:45;8.27;;;2.27;;
1380;SDS011;684;48.342;10.096;2023-07-16T04:37:11;8.40;;;2.83;;
1380;SDS011;684;48.342;10.096;2023-07-16T04:39:39;7.80;;;2.90;;
1380;SDS011;684;48.342;10.096;2023-07-16T04:42:06;7.53;;;2.30;;
1380;SDS011;684;48.342;10.096;2023-07-16T04:44:33;12.03;;;3.30;;
1380;SDS011;684;48.342;10.096;2023-07-16T04:46:59;7.60;;;2.57;;
1380;SDS011;684;48.342;10.096;2023-07-16T04:49:26;8.17;;;3.17;;
1380;SDS011;684;48.342;10.096;2023-07-16T04:51:53;7.87;;;2.93;;
1380;SDS011;684;48.342;10.096;2023-07-16T04:54:20;6.73;;;2.20;;
1380;SDS011;684;48.342;10.096;2023-07-16T04:56:48;7.77;;;3.10;;
1380;SDS011;684;48.342;10.096;2023-07-16T04:59:14;9.00;;;2.47;;
1380;SDS011;684;48.342;10.096;2023-07-16T05:01:41;8.80;;;2.70;;
1380;SDS011;684;48.342;10.096;2023-07-16T05:04:08;6.40;;;2.00;;
1380;SDS011;684;48.342;10.096;2023-07-16T05:06:34;8.73;;;3.00;;
1380;SDS011;684;48.342;10.096;2023-07-16T05:09:01;7.83;;;2.60;;
1380;SDS011;684;48.342;10.096;2023-07-16T05:11:28;6.77;;;2.60;;
1380;SDS011;684;48.342;10.096;2023-07-16T05:13:56;7.00;;;2.93;;
1380;SDS011;684;48.342;10.096;2023-07-16T05:16:23;10.53;;;3.00;;
1380;SDS011;684;48.342;10.096;2023-07-16T05:18:49;8.90;;;3.20;;
1380;SDS011;684;48.342;10.096;2023-07-16T05:21:16;4.90;;;2.17;;
1380;SDS011;684;48.342;10.096;2023-07-16T05:23:43;6.50;;;2.50;;
1380;SDS011;684;48.342;10.096;2023-07-16T05:26:09;5.87;;;2.10;;
1380;SDS011;684;48.342;10.096;2023-07-16T05:28:36;6.70;;;1.87;;
1380;SDS011;684;48.342;10.096;2023-07-16T05:31:04;5.43;;;2.53;;
1380;SDS011;684;48.342;10.096;2023-07-16T05:33:31;8.50;;;1.83;;
1380;SDS011;684;48.342;10.096;2023-07-16T05:35:58;4.97;;;2.27;;
1380;SDS011;684;48.342;10.096;2023-07-16T05:38:24;6.17;;;1.70;;
1380;SDS011;684;48.342;10.096;2023-07-16T05:40:51;4.97;;;1.63;;
1380;SDS011;684;48.342;10.096;2023-07-16T05:43:18;7.30;;;2.20;;
1380;SDS011;684;48.342;10.096;2023-07-16T05:45:44;5.00;;;1.70;;
1380;SDS011;684;48.342;10.096;2023-07-16T05:48:12;5.07;;;1.67;;
1380;SDS011;684;48.342;10.096;2023-07-16T05:50:39;4.80;;;1.50;;
1380;SDS011;684;48.342;10.096;2023-07-16T05:53:06;5.00;;;1.87;;
1380;SDS011;684;48.342;10.096;2023-07-16T05:55:32;4.60;;;1.70;;
1380;SDS011;684;48.342;10.096;2023-07-16T05:57:59;6.43;;;1.70;;
1380;SDS011;684;48.342;10.096;2023-07-16T06:00:26;5.17;;;1.80;;
1380;SDS011;684;48.342;10.096;2023-07-16T06:02:52;9.33;;;3.30;;
1380;SDS011;684;48.342;10.096;2023-07-16T06:05:22;4.80;;;1.70;;
1380;SDS011;684;48.342;10.096;2023-07-16T06:07:49;5.73;;;1.90;;
1380;SDS011;684;48.342;10.096;2023-07-16T06:10:16;6.77;;;2.10;;
1380;SDS011;684;48.342;10.096;2023-07-16T06:12:43;7.13;;;2.20;;
1380;SDS011;684;48.342;10.096;2023-07-16T06:15:09;5.67;;;2.03;;
1380;SDS011;684;48.342;10.096;2023-07-16T06:17:36;6.13;;;2.23;;
1380;SDS011;684;48.342;10.096;2023-07-16T06:20:03;4.77;;;1.60;;
1380;SDS011;684;48.342;10.096;2023-07-16T06:22:33;6.10;;;2.30;;
1380;SDS011;684;48.342;10.096;2023-07-16T06:25:00;6.83;;;2.20;;
1380;SDS011;684;48.342;10.096;2023-07-16T06:27:27;4.80;;;2.20;;
1380;SDS011;684;48.342;10.096;2023-07-16T06:29:53;5.30;;;2.00;;
1380;SDS011;684;48.342;10.096;2023-07-16T06:32:20;4.80;;;1.70;;
1380;SDS011;684;48.342;10.096;2023-07-16T06:34:47;5.47;;;1.80;;
1380;SDS011;684;48.342;10.096;2023-07-16T06:37:14;9.37;;;2.10;;
1380;SDS011;684;48.342;10.096;2023-07-16T06:39:42;6.50;;;1.90;;
1380;SDS011;684;48.342;10.096;2023-07-16T06:42:08;8.83;;;2.10;;
1380;SDS011;684;48.342;10.096;2023-07-16T06:44:35;5.70;;;2.33;;
1380;SDS011;684;48.342;10.096;2023-07-16T06:47:02;5.10;;;2.20;;
1380;SDS011;684;48.342;10.096;2023-07-16T06:49:29;4.90;;;2.00;;
1380;SDS011;684;48.342;10.096;2023-07-16T06:51:57;8.63;;;2.17;;
1380;SDS011;684;48.342;10.096;2023-07-16T06:54:23;5.67;;;1.80;;
1380;SDS011;684;48.342;10.096;2023-07-16T06:56:51;7.00;;;2.47;;
1380;SDS011;684;48.342;10.096;2023-07-16T06:59:18;5.87;;;2.50;;
1380;SDS011;684;48.342;10.096;2023-07-16T07:01:45;6.60;;;2.57;;
1380;SDS011;684;48.342;10.096;2023-07-16T07:04:11;5.00;;;2.07;;
1380;SDS011;684;48.342;10.096;2023-07-16T07:06:38;9.83;;;2.73;;
1380;SDS011;684;48.342;10.096;2023-07-16T07:09:05;5.40;;;2.00;;
1380;SDS011;684;48.342;10.096;2023-07-16T07:11:32;5.43;;;1.60;;
1380;SDS011;684;48.342;10.096;2023-07-16T07:14:00;5.73;;;2.13;;
1380;SDS011;684;48.342;10.096;2023-07-16T07:16:27;6.00;;;2.27;;
1380;SDS011;684;48.342;10.096;2023-07-16T07:18:53;5.73;;;1.90;;
1380;SDS011;684;48.342;10.096;2023-07-16T07:21:20;5.60;;;2.00;;
1380;SDS011;684;48.342;10.096;2023-07-16T07:23:47;5.30;;;1.93;;
1380;SDS011;684;48.342;10.096;2023-07-16T07:26:13;6.37;;;2.30;;
1380;SDS011;684;48.342;10.096;2023-07-16T07:28:40;5.60;;;1.77;;
1380;SDS011;684;48.342;10.096;2023-07-16T07:31:08;4.90;;;1.80;;
1380;SDS011;684;48.342;10.096;2023-07-16T07:33:35;5.73;;;1.60;;
1380;SDS011;684;48.342;10.096;2023-07-16T07:36:02;6.63;;;1.30;;
1380;SDS011;684;48.342;10.096;2023-07-16T07:38:28;5.03;;;1.87;;
1380;SDS011;684;48.342;10.096;2023-07-16T07:40:55;5.10;;;1.70;;
1380;SDS011;684;48.342;10.096;2023-07-16T07:43:22;5.93;;;1.63;;
1380;SDS011;684;48.342;10.096;2023-07-16T07:45:49;7.40;;;1.97;;
1380;SDS011;684;48.342;10.096;2023-07-16T07:48:17;4.40;;;1.53;;
1380;SDS011;684;48.342;10.096;2023-07-16T07:50:43;4.50;;;1.87;;
1380;SDS011;684;48.342;10.096;2023-07-16T07:53:12;4.40;;;1.63;;
1380;SDS011;684;48.342;10.096;2023-07-16T07:55:40;5.90;;;1.70;;
1380;SDS011;684;48.342;10.096;2023-07-16T07:58:07;6.73;;;2.03;;
1380;SDS011;684;48.342;10.096;2023-07-16T08:00:34;4.97;;;1.53;;
1380;SDS011;684;48.342;10.096;2023-07-16T08:03:00;4.73;;;1.40;;
1380;SDS011;684;48.342;10.096;2023-07-16T08:05:29;7.47;;;1.60;;
1380;SDS011;684;48.342;10.096;2023-07-16T08:07:56;4.73;;;1.43;;
1380;SDS011;684;48.342;10.096;2023-07-16T08:10:22;4.77;;;1.70;;
1380;SDS011;684;48.342;10.096;2023-07-16T08:12:49;4.80;;;1.93;;
1380;SDS011;684;48.342;10.096;2023-07-16T08:15:17;5.77;;;1.53;;
1380;SDS011;684;48.342;10.096;2023-07-16T08:17:45;4.77;;;1.50;;
1380;SDS011;684;48.342;10.096;2023-07-16T08:20:12;5.00;;;1.80;;
1380;SDS011;684;48.342;10.096;2023-07-16T08:22:41;10.33;;;1.97;;
1380;SDS011;684;48.342;10.096;2023-07-16T08:25:07;8.03;;;1.57;;
1380;SDS011;684;48.342;10.096;2023-07-16T08:27:34;4.80;;;1.40;;
1380;SDS011;684;48.342;10.096;2023-07-16T08:30:01;4.67;;;1.40;;
1380;SDS011;684;48.342;10.096;2023-07-16T08:32:28;4.10;;;1.40;;
1380;SDS011;684;48.342;10.096;2023-07-16T08:34:55;4.87;;;1.57;;
1380;SDS011;684;48.342;10.096;2023-07-16T08:37:22;5.60;;;1.70;;
1380;SDS011;684;48.342;10.096;2023-07-16T08:39:51;5.77;;;1.67;;
1380;SDS011;684;48.342;10.096;2023-07-16T08:42:18;4.80;;;1.80;;
1380;SDS011;684;48.342;10.096;2023-07-16T08:44:46;4.30;;;1.50;;
1380;SDS011;684;48.342;10.096;2023-07-16T08:47:14;4.47;;;1.83;;
1380;SDS011;684;48.342;10.096;2023-07-16T08:49:41;4.40;;;1.47;;
1380;SDS011;684;48.342;10.096;2023-07-16T08:52:19;4.00;;;1.20;;
1380;SDS011;684;48.342;10.096;2023-07-16T08:54:46;4.63;;;1.57;;
1380;SDS011;684;48.342;10.096;2023-07-16T08:57:14;4.10;;;1.60;;
1380;SDS011;684;48.342;10.096;2023-07-16T08:59:41;4.50;;;1.43;;
1380;SDS011;684;48.342;10.096;2023-07-16T09:02:09;3.63;;;1.30;;
1380;SDS011;684;48.342;10.096;2023-07-16T09:04:36;4.43;;;1.30;;
1380;SDS011;684;48.342;10.096;2023-07-16T09:07:03;5.30;;;1.50;;
1380;SDS011;684;48.342;10.096;2023-07-16T09:09:30;5.90;;;2.10;;
1380;SDS011;684;48.342;10.096;2023-07-16T09:11:57;3.80;;;1.30;;
1380;SDS011;684;48.342;10.096;2023-07-16T09:14:25;6.53;;;1.83;;
1380;SDS011;684;48.342;10.096;2023-07-16T09:16:52;5.17;;;1.50;;
1380;SDS011;684;48.342;10.096;2023-07-16T09:19:20;3.97;;;1.53;;
1380;SDS011;684;48.342;10.096;2023-07-16T09:21:47;4.50;;;1.50;;
1380;SDS011;684;48.342;10.096;2023-07-16T09:24:14;5.23;;;1.50;;
1380;SDS011;684;48.342;10.096;2023-07-16T09:26:47;6.00;;;1.97;;
1380;SDS011;684;48.342;10.096;2023-07-16T09:29:14;3.73;;;1.27;;
1380;SDS011;684;48.342;10.096;2023-07-16T09:31:52;3.60;;;1.27;;
1380;SDS011;684;48.342;10.096;2023-07-16T09:34:19;5.97;;;1.50;;
1380;SDS011;684;48.342;10.096;2023-07-16T09:36:46;4.20;;;1.50;;
1380;SDS011;684;48.342;10.096;2023-07-16T09:39:14;4.00;;;1.33;;
1380;SDS011;684;48.342;10.096;2023-07-16T09:41:42;3.70;;;1.30;;
1380;SDS011;684;48.342;10.096;2023-07-16T09:44:10;3.90;;;1.40;;
1380;SDS011;684;48.342;10.096;2023-07-16T09:46:38;4.83;;;1.43;;
1380;SDS011;684;48.342;10.096;2023-07-16T09:49:06;5.27;;;1.63;;
1380;SDS011;684;48.342;10.096;2023-07-16T09:51:34;4.77;;;1.73;;
1380;SDS011;684;48.342;10.096;2023-07-16T09:54:02;5.10;;;1.80;;
1380;SDS011;684;48.342;10.096;2023-07-16T09:56:31;4.20;;;1.30;;
1380;SDS011;684;48.342;10.096;2023-07-16T09:59:02;4.03;;;1.30;;
1380;SDS011;684;48.342;10.096;2023-07-16T10:01:30;6.50;;;2.20;;
1380;SDS011;684;48.342;10.096;2023-07-16T10:03:58;5.27;;;1.90;;
1380;SDS011;684;48.342;10.096;2023-07-16T10:06:26;5.43;;;1.50;;
1380;SDS011;684;48.342;10.096;2023-07-16T10:08:52;5.23;;;1.60;;
1380;SDS011;684;48.342;10.096;2023-07-16T10:11:19;4.37;;;1.40;;
1380;SDS011;684;48.342;10.096;2023-07-16T10:13:49;3.90;;;1.50;;
1380;SDS011;684;48.342;10.096;2023-07-16T10:16:19;4.53;;;1.30;;
1380;SDS011;684;48.342;10.096;2023-07-16T10:18:49;6.53;;;1.57;;
1380;SDS011;684;48.342;10.096;2023-07-16T10:21:22;4.40;;;1.80;;
1380;SDS011;684;48.342;10.096;2023-07-16T10:23:56;4.73;;;1.60;;
1380;SDS011;684;48.342;10.096;2023-07-16T10:26:26;4.80;;;2.23;;
1380;SDS011;684;48.342;10.096;2023-07-16T10:28:53;6.27;;;1.63;;
1380;SDS011;684;48.342;10.096;2023-07-16T10:31:21;4.10;;;1.70;;
1380;SDS011;684;48.342;10.096;2023-07-16T10:33:57;7.67;;;2.40;;
1380;SDS011;684;48.342;10.096;2023-07-16T10:36:24;4.53;;;2.10;;
1380;SDS011;684;48.342;10.096;2023-07-16T10:38:52;4.30;;;1.90;;
1380;SDS011;684;48.342;10.096;2023-07-16T10:41:19;5.97;;;2.10;;
1380;SDS011;684;48.342;10.096;2023-07-16T10:43:47;5.40;;;2.10;;
1380;SDS011;684;48.342;10.096;2023-07-16T10:46:13;4.67;;;2.10;;
1380;SDS011;684;48.342;10.096;2023-07-16T10:48:45;6.00;;;1.90;;
1380;SDS011;684;48.342;10.096;2023-07-16T10:51:13;4.97;;;2.13;;
1380;SDS011;684;48.342;10.096;2023-07-16T10:53:40;6.07;;;2.40;;
1380;SDS011;684;48.342;10.096;2023-07-16T10:56:08;4.20;;;1.93;;
1380;SDS011;684;48.342;10.096;2023-07-16T10:58:36;6.03;;;2.10;;
1380;SDS011;684;48.342;10.096;2023-07-16T11:01:03;4.57;;;2.23;;
1380;SDS011;684;48.342;10.096;2023-07-16T11:03:30;4.90;;;2.20;;
1380;SDS011;684;48.342;10.096;2023-07-16T11:05:56;4.80;;;1.90;;
1380;SDS011;684;48.342;10.096;2023-07-16T11:08:23;5.50;;;2.30;;
1380;SDS011;684;48.342;10.096;2023-07-16T11:10:54;4.53;;;2.10;;
1380;SDS011;684;48.342;10.096;2023-07-16T11:13:26;4.90;;;1.93;;
1380;SDS011;684;48.342;10.096;2023-07-16T11:15:53;4.67;;;2.20;;
1380;SDS011;684;48.342;10.096;2023-07-16T11:18:21;5.47;;;2.40;;
1380;SDS011;684;48.342;10.096;2023-07-16T11:20:50;4.60;;;1.90;;
1380;SDS011;684;48.342;10.096;2023-07-16T11:23:17;4.10;;;1.80;;
1380;SDS011;684;48.342;10.096;2023-07-16T11:25:45;6.80;;;1.93;;
1380;SDS011;684;48.342;10.096;2023-07-16T11:28:12;5.37;;;1.80;;
1380;SDS011;684;48.342;10.096;2023-07-16T11:30:41;5.50;;;1.90;;
1380;SDS011;684;48.342;10.096;2023-07-16T11:33:09;5.67;;;1.70;;
1380;SDS011;684;48.342;10.096;2023-07-16T11:35:36;4.50;;;1.57;;
1380;SDS011;684;48.342;10.096;2023-07-16T11:38:04;5.93;;;1.83;;
1380;SDS011;684;48.342;10.096;2023-07-16T11:40:31;4.40;;;1.70;;
1380;SDS011;684;48.342;10.096;2023-07-16T11:43:07;3.97;;;1.50;;
1380;SDS011;684;48.342;10.096;2023-07-16T11:45:34;4.60;;;2.00;;
1380;SDS011;684;48.342;10.096;2023-07-16T11:48:03;5.97;;;2.20;;
1380;SDS011;684;48.342;10.096;2023-07-16T11:50:30;4.30;;;1.63;;
1380;SDS011;684;48.342;10.096;2023-07-16T11:52:59;4.80;;;1.70;;
1380;SDS011;684;48.342;10.096;2023-07-16T11:55:27;5.27;;;2.10;;
1380;SDS011;684;48.342;10.096;2023-07-16T11:57:54;4.70;;;1.60;;
1380;SDS011;684;48.342;10.096;2023-07-16T12:00:21;4.13;;;1.67;;
1380;SDS011;684;48.342;10.096;2023-07-16T12:02:48;3.93;;;1.10;;
1380;SDS011;684;48.342;10.096;2023-07-16T12:05:18;4.70;;;1.20;;
1380;SDS011;684;48.342;10.096;2023-07-16T12:07:45;6.37;;;2.00;;
1380;SDS011;684;48.342;10.096;2023-07-16T12:10:12;7.17;;;1.97;;
1380;SDS011;684;48.342;10.096;2023-07-16T12:12:41;3.87;;;1.30;;
1380;SDS011;684;48.342;10.096;2023-07-16T12:15:08;4.70;;;1.90;;
1380;SDS011;684;48.342;10.096;2023-07-16T12:17:36;4.20;;;1.40;;
1380;SDS011;684;48.342;10.096;2023-07-16T12:20:03;4.73;;;1.83;;
1380;SDS011;684;48.342;10.096;2023-07-16T12:22:32;5.93;;;1.97;;
1380;SDS011;684;48.342;10.096;2023-07-16T12:25:01;5.00;;;2.20;;
1380;SDS011;684;48.342;10.096;2023-07-16T12:27:27;4.73;;;1.67;;
1380;SDS011;684;48.342;10.096;2023-07-16T12:29:54;4.80;;;2.10;;
1380;SDS011;684;48.342;10.096;2023-07-16T12:32:21;4.80;;;2.00;;
1380;SDS011;684;48.342;10.096;2023-07-16T12:34:48;5.13;;;1.70;;
1380;SDS011;684;48.342;10.096;2023-07-16T12:37:14;5.40;;;1.80;;
1380;SDS011;684;48.342;10.096;2023-07-16T12:39:43;4.43;;;1.70;;
1380;SDS011;684;48.342;10.096;2023-07-16T12:42:09;4.73;;;1.67;;
1380;SDS011;684;48.342;10.096;2023-07-16T12:44:36;7.70;;;1.90;;
1380;SDS011;684;48.342;10.096;2023-07-16T12:47:03;5.57;;;1.60;;
1380;SDS011;684;48.342;10.096;2023-07-16T12:49:33;4.90;;;1.90;;
1380;SDS011;684;48.342;10.096;2023-07-16T12:52:00;4.70;;;1.73;;
1380;SDS011;684;48.342;10.096;2023-07-16T12:54:27;6.03;;;2.17;;
1380;SDS011;684;48.342;10.096;2023-07-16T12:56:55;5.27;;;2.17;;
1380;SDS011;684;48.342;10.096;2023-07-16T12:59:22;5.53;;;2.37;;
1380;SDS011;684;48.342;10.096;2023-07-16T13:01:49;5.00;;;1.90;;
1380;SDS011;684;48.342;10.096;2023-07-16T13:04:16;5.87;;;2.17;;
1380;SDS011;684;48.342;10.096;2023-07-16T13:06:43;4.90;;;1.80;;
1380;SDS011;684;48.342;10.096;2023-07-16T13:09:12;6.93;;;1.97;;
1380;SDS011;684;48.342;10.096;2023-07-16T13:11:39;4.70;;;2.00;;
1380;SDS011;684;48.342;10.096;2023-07-16T13:14:07;5.87;;;2.10;;
1380;SDS011;684;48.342;10.096;2023-07-16T13:16:34;5.20;;;1.90;;
1380;SDS011;684;48.342;10.096;2023-07-16T13:19:01;4.37;;;1.73;;
1380;SDS011;684;48.342;10.096;2023-07-16T13:21:28;4.40;;;2.07;;
1380;SDS011;684;48.342;10.096;2023-07-16T13:23:55;5.53;;;2.00;;
1380;SDS011;684;48.342;10.096;2023-07-16T13:26:22;7.10;;;1.73;;
1380;SDS011;684;48.342;10.096;2023-07-16T13:28:48;4.90;;;2.17;;
1380;SDS011;684;48.342;10.096;2023-07-16T13:31:17;5.00;;;1.90;;
1380;SDS011;684;48.342;10.096;2023-07-16T13:33:44;5.07;;;2.17;;
1380;SDS011;684;48.342;10.096;2023-07-16T13:36:11;5.20;;;1.80;;
1380;SDS011;684;48.342;10.096;2023-07-16T13:38:37;4.23;;;1.70;;
1380;SDS011;684;48.342;10.096;2023-07-16T13:41:04;6.30;;;1.80;;
1380;SDS011;684;48.342;10.096;2023-07-16T13:43:31;5.63;;;1.83;;
1380;SDS011;684;48.342;10.096;2023-07-16T13:45:58;4.50;;;1.83;;
1380;SDS011;684;48.342;10.096;2023-07-16T13:48:26;6.50;;;1.90;;
1380;SDS011;684;48.342;10.096;2023-07-16T13:50:52;6.40;;;2.20;;
1380;SDS011;684;48.342;10.096;2023-07-16T13:53:19;5.93;;;2.20;;
1380;SDS011;684;48.342;10.096;2023-07-16T13:55:46;6.00;;;1.80;;
1380;SDS011;684;48.342;10.096;2023-07-16T13:58:13;5.30;;;1.90;;
1380;SDS011;684;48.342;10.096;2023-07-16T14:00:39;4.93;;;2.20;;
1380;SDS011;684;48.342;10.096;2023-07-16T14:03:06;4.90;;;2.10;;
1380;SDS011;684;48.342;10.096;2023-07-16T14:05:38;5.50;;;2.13;;
1380;SDS011;684;48.342;10.096;2023-07-16T14:08:05;5.30;;;2.00;;
1380;SDS011;684;48.342;10.096;2023-07-16T14:10:32;5.00;;;1.77;;
1380;SDS011;684;48.342;10.096;2023-07-16T14:12:59;4.77;;;1.83;;
1380;SDS011;684;48.342;10.096;2023-07-16T14:15:25;5.13;;;2.00;;
1380;SDS011;684;48.342;10.096;2023-07-16T14:17:52;5.60;;;2.43;;
1380;SDS011;684;48.342;10.096;2023-07-16T14:20:19;5.00;;;2.03;;
1380;SDS011;684;48.342;10.096;2023-07-16T14:22:47;6.60;;;2.37;;
1380;SDS011;684;48.342;10.096;2023-07-16T14:25:14;5.00;;;2.23;;
1380;SDS011;684;48.342;10.096;2023-07-16T14:27:40;4.60;;;2.07;;
1380;SDS011;684;48.342;10.096;2023-07-16T14:30:07;4.60;;;1.80;;
1380;SDS011;684;48.342;10.096;2023-07-16T14:32:35;5.40;;;2.20;;
1380;SDS011;684;48.342;10.096;2023-07-16T14:35:03;5.03;;;2.20;;
1380;SDS011;684;48.342;10.096;2023-07-16T14:37:30;5.30;;;2.20;;
1380;SDS011;684;48.342;10.096;2023-07-16T14:39:58;6.67;;;1.90;;
1380;SDS011;684;48.342;10.096;2023-07-16T14:42:25;4.63;;;2.13;;
1380;SDS011;684;48.342;10.096;2023-07-16T14:44:52;4.77;;;2.13;;
1380;SDS011;684;48.342;10.096;2023-07-16T14:47:18;4.50;;;2.13;;
1380;SDS011;684;48.342;10.096;2023-07-16T14:49:45;4.70;;;2.23;;
1380;SDS011;684;48.342;10.096;2023-07-16T14:52:12;5.60;;;1.70;;
1380;SDS011;684;48.342;10.096;2023-07-16T14:54:38;5.80;;;2.20;;
1380;SDS011;684;48.342;10.096;2023-07-16T14:57:06;5.47;;;2.53;;
1380;SDS011;684;48.342;10.096;2023-07-16T14:59:33;5.13;;;2.50;;
1380;SDS011;684;48.342;10.096;2023-07-16T15:02:01;4.43;;;1.80;;
1380;SDS011;684;48.342;10.096;2023-07-16T15:04:28;6.03;;;2.40;;
1380;SDS011;684;48.342;10.096;2023-07-16T15:06:55;4.30;;;1.87;;
1380;SDS011;684;48.342;10.096;2023-07-16T15:09:22;7.60;;;3.43;;
1380;SDS011;684;48.342;10.096;2023-07-16T15:11:49;5.90;;;2.07;;
1380;SDS011;684;48.342;10.096;2023-07-16T15:14:17;5.40;;;2.10;;